SBSN/STM METAR and TAF weather

Enter ICAO airport designator
Station Type Date Time Source
SBSN METAR 2019/12/06 14:00 UTC NOAA

SBSN 061400Z 12012KT 9999 SCT018 30/24 Q1012


Station Type Date Time Source
SBSN Decoded METAR 2019/12/06 14:00 UTC NOAA

Santarem-Aeroporto, Brazil (SBSN) 02-26S 054-43W 72M
Dec 06, 2019 - 09:00 AM EST / 2019.12.06 1400 UTC
Wind: from the ESE (120 degrees) at 14 MPH (12 KT):0
Visibility: greater than 7 mile(s):0
Sky conditions: partly cloudy
Temperature: 86 F (30 C)
Heat index: 95.0 F (35.0 C):1
Dew Point: 75 F (24 C)
Relative Humidity: 70%
Pressure (altimeter): 29.88 in. Hg (1012 hPa)
ob: SBSN 061400Z 12012KT 9999 SCT018 30/24 Q1012
cycle: 14

Station Type Date Time Source
SBSN TAF 2019/12/06 12:18 UTC NOAA

TAF TAF SBSN 060900Z 0612/0712 11005KT 9999 FEW017 TX34/0618Z TN26/0708Z
BECMG 0613/0615 09005KT SCT017
BECMG 0616/0618 07010KT SCT020 FEW025TCU
BECMG 0620/0621 12007KT
BECMG 0622/0624 14005KT FEW020
BECMG 0700/0702 CAVOK
BECMG 0704/0706 09005KT FEW015
RMK PFV

Example: see airport list